KLM135 EHAM-CYYZ
Flight info
| Callsign | KLM135 |
|---|---|
| Flight time | N/A |
| Altitude | 38000 |
| Route | BERGI L602 NALAX L46 ESHIN N110 ERKIT DCT NAVSO DCT APSOV DCT PIKIL/M085F390 DCT 57N020W 57N030W 57N040W 56N050W DCT JANJO/N0497F400 DCT ALKOB DCT YBC DCT POLTY IMEBA9 |
| Aircraft | A35K/H-SDE2E3GHIJ3J4J5LM1ORWXY/LB1D1 |
Departure
| Time | 2026-05-04 22:57 |
|---|---|
| Airport | Amsterdam Airport Schiphol (EHAM) |
Arrival
| Time | N/A |
|---|---|
| Airport | Toronto Pearson International Airport (CYYZ) |
| Time | Latitude | Longitude | Altitude | Speed | Heading |
|---|---|---|---|---|---|
| 2026-05-04 22:47 | 52.31215 | 4.76872 | 5 ft | 0 kts | 304° |
| 2026-05-04 22:49 | 52.31215 | 4.76874 | 5 ft | 2 kts | 304° |
| 2026-05-04 22:50 | 52.31204 | 4.76899 | 6 ft | 3 kts | 304° |
| 2026-05-04 22:50 | 52.31191 | 4.76924 | 6 ft | 3 kts | 334° |
| 2026-05-04 22:50 | 52.31172 | 4.76933 | 8 ft | 3 kts | 10° |
| 2026-05-04 22:50 | 52.31160 | 4.76928 | 8 ft | 0 kts | 28° |
| 2026-05-04 22:51 | 52.31164 | 4.76931 | 8 ft | 1 kts | 30° |
| 2026-05-04 22:51 | 52.31175 | 4.76944 | 5 ft | 3 kts | 32° |
| 2026-05-04 22:51 | 52.31200 | 4.76970 | 5 ft | 6 kts | 35° |
| 2026-05-04 22:52 | 52.31238 | 4.77018 | 5 ft | 8 kts | 38° |
| 2026-05-04 22:52 | 52.31291 | 4.77087 | 5 ft | 11 kts | 37° |
| 2026-05-04 22:52 | 52.31360 | 4.77164 | 5 ft | 13 kts | 28° |
| 2026-05-04 22:52 | 52.31450 | 4.77200 | 5 ft | 14 kts | 8° |
| 2026-05-04 22:53 | 52.31549 | 4.77177 | 5 ft | 15 kts | 317° |
| 2026-05-04 22:53 | 52.31565 | 4.77004 | 5 ft | 17 kts | 269° |
| 2026-05-04 22:53 | 52.31557 | 4.76789 | 5 ft | 21 kts | 265° |
| 2026-05-04 22:53 | 52.31547 | 4.76540 | 5 ft | 23 kts | 267° |
| 2026-05-04 22:54 | 52.31538 | 4.76259 | 5 ft | 27 kts | 267° |
| 2026-05-04 22:54 | 52.31527 | 4.75900 | 5 ft | 36 kts | 267° |
| 2026-05-04 22:54 | 52.31516 | 4.75465 | 5 ft | 40 kts | 268° |
| 2026-05-04 22:54 | 52.31497 | 4.75287 | 4 ft | 0 kts | 178° |
| 2026-05-04 22:55 | 52.31917 | 4.73373 | 6 ft | 548 kts | 178° |
| 2026-05-04 22:55 | 52.33136 | 4.71435 | 5 ft | 0 kts | 178° |
| 2026-05-04 22:55 | 52.33117 | 4.71435 | 5 ft | 7 kts | 183° |
| 2026-05-04 22:55 | 52.33023 | 4.71343 | 5 ft | 26 kts | 225° |
| 2026-05-04 22:56 | 52.32876 | 4.71107 | 5 ft | 28 kts | 242° |
| 2026-05-04 22:56 | 52.32877 | 4.70949 | 4 ft | 14 kts | 304° |
| 2026-05-04 22:56 | 52.32986 | 4.70909 | 3 ft | 32 kts | 358° |
| 2026-05-04 22:56 | 52.33454 | 4.70966 | 4 ft | 100 kts | 4° |
| 2026-05-04 22:57 | 52.34342 | 4.71047 | 99 ft | 146 kts | 5° |
| 2026-05-04 22:57 | 52.35361 | 4.71147 | 745 ft | 146 kts | 5° |
| 2026-05-04 22:57 | 52.36373 | 4.71218 | 1499 ft | 147 kts | 4° |
| 2026-05-04 22:57 | 52.37467 | 4.71309 | 1852 ft | 169 kts | 6° |
| 2026-05-04 22:58 | 52.38724 | 4.71444 | 2139 ft | 193 kts | 6° |
| 2026-05-04 22:58 | 52.40107 | 4.71586 | 2620 ft | 206 kts | 5° |
| 2026-05-04 22:58 | 52.41626 | 4.71741 | 2914 ft | 231 kts | 4° |
| 2026-05-04 22:58 | 52.43273 | 4.71904 | 3406 ft | 247 kts | 2° |
| 2026-05-04 22:59 | 52.45014 | 4.72074 | 4094 ft | 253 kts | 2° |
| 2026-05-04 22:59 | 52.46783 | 4.72248 | 4869 ft | 257 kts | 0° |
| 2026-05-04 22:59 | 52.47490 | 4.72316 | 5162 ft | 259 kts | 1° |
| 2026-05-04 22:59 | 52.49312 | 4.72490 | 5894 ft | 265 kts | 1° |
| 2026-05-04 23:00 | 52.50361 | 4.72591 | 6308 ft | 269 kts | 1° |